sensor_id;sensor_type;location;lat;lon;timestamp;pressure;altitude;pressure_sealevel;temperature;humidity
54306;BME280;66145;45.188;5.712;2023-07-09T00:01:55;99510.34;;;24.75;65.71
54306;BME280;66145;45.188;5.712;2023-07-09T00:04:21;99506.75;;;24.74;65.84
54306;BME280;66145;45.188;5.712;2023-07-09T00:06:47;99500.88;;;24.76;65.66
54306;BME280;66145;45.188;5.712;2023-07-09T00:09:14;99499.38;;;24.66;65.64
54306;BME280;66145;45.188;5.712;2023-07-09T00:11:42;99504.34;;;24.73;65.62
54306;BME280;66145;45.188;5.712;2023-07-09T00:14:12;99501.44;;;24.69;65.74
54306;BME280;66145;45.188;5.712;2023-07-09T00:16:38;99505.94;;;24.74;65.83
54306;BME280;66145;45.188;5.712;2023-07-09T00:19:08;99493.16;;;24.69;65.77
54306;BME280;66145;45.188;5.712;2023-07-09T00:21:36;99518.63;;;24.75;65.73
54306;BME280;66145;45.188;5.712;2023-07-09T00:24:01;99507.44;;;24.71;65.72
54306;BME280;66145;45.188;5.712;2023-07-09T00:26:30;99504.66;;;24.71;65.91
54306;BME280;66145;45.188;5.712;2023-07-09T00:28:56;99507.78;;;24.70;65.85
54306;BME280;66145;45.188;5.712;2023-07-09T00:31:21;99488.91;;;24.59;65.54
54306;BME280;66145;45.188;5.712;2023-07-09T00:33:48;99485.66;;;24.57;65.81
54306;BME280;66145;45.188;5.712;2023-07-09T00:36:32;99501.22;;;24.62;65.43
54306;BME280;66145;45.188;5.712;2023-07-09T00:38:57;99510.34;;;24.75;66.07
54306;BME280;66145;45.188;5.712;2023-07-09T00:41:25;99511.47;;;24.74;65.67
54306;BME280;66145;45.188;5.712;2023-07-09T00:43:52;99515.97;;;24.79;65.99
54306;BME280;66145;45.188;5.712;2023-07-09T00:49:49;99510.19;;;24.71;65.55
54306;BME280;66145;45.188;5.712;2023-07-09T00:52:35;99536.56;;;24.81;66.19
54306;BME280;66145;45.188;5.712;2023-07-09T00:55:09;99518.16;;;24.73;65.89
54306;BME280;66145;45.188;5.712;2023-07-09T00:57:38;99508.13;;;24.68;65.73
54306;BME280;66145;45.188;5.712;2023-07-09T01:00:09;99498.22;;;24.55;65.96
54306;BME280;66145;45.188;5.712;2023-07-09T01:02:44;99516.91;;;24.70;65.75
54306;BME280;66145;45.188;5.712;2023-07-09T01:05:12;99535.88;;;24.84;65.41
54306;BME280;66145;45.188;5.712;2023-07-09T01:07:40;99527.59;;;24.84;66.16
54306;BME280;66145;45.188;5.712;2023-07-09T01:10:06;99523.22;;;24.83;65.74
54306;BME280;66145;45.188;5.712;2023-07-09T01:12:32;99534.50;;;24.90;65.43
54306;BME280;66145;45.188;5.712;2023-07-09T01:14:58;99531.72;;;24.90;65.80
54306;BME280;66145;45.188;5.712;2023-07-09T01:17:26;99509.97;;;24.77;65.95
54306;BME280;66145;45.188;5.712;2023-07-09T01:19:54;99526.53;;;24.89;66.48
54306;BME280;66145;45.188;5.712;2023-07-09T01:22:21;99528.84;;;24.87;65.38
54306;BME280;66145;45.188;5.712;2023-07-09T01:25:01;99536.44;;;24.90;65.88
54306;BME280;66145;45.188;5.712;2023-07-09T01:27:36;99525.28;;;24.86;65.98
54306;BME280;66145;45.188;5.712;2023-07-09T01:30:06;99520.91;;;24.85;65.49
54306;BME280;66145;45.188;5.712;2023-07-09T01:32:32;99520.09;;;24.85;65.58
54306;BME280;66145;45.188;5.712;2023-07-09T01:35:03;99524.13;;;24.87;65.99
54306;BME280;66145;45.188;5.712;2023-07-09T01:37:34;99530.56;;;24.92;65.97
54306;BME280;66145;45.188;5.712;2023-07-09T01:39:59;99515.38;;;24.85;66.32
54306;BME280;66145;45.188;5.712;2023-07-09T01:42:28;99523.31;;;24.87;65.93
54306;BME280;66145;45.188;5.712;2023-07-09T01:44:54;99512.84;;;24.80;66.78
54306;BME280;66145;45.188;5.712;2023-07-09T01:47:20;99497.66;;;24.74;66.46
54306;BME280;66145;45.188;5.712;2023-07-09T01:49:47;99515.59;;;24.80;65.98
54306;BME280;66145;45.188;5.712;2023-07-09T01:52:14;99523.22;;;24.83;67.35
54306;BME280;66145;45.188;5.712;2023-07-09T01:54:41;99534.97;;;24.93;66.56
54306;BME280;66145;45.188;5.712;2023-07-09T01:57:33;99541.28;;;24.93;66.25
54306;BME280;66145;45.188;5.712;2023-07-09T02:00:00;99538.63;;;24.97;67.21
54306;BME280;66145;45.188;5.712;2023-07-09T02:02:26;99536.22;;;24.95;67.24
54306;BME280;66145;45.188;5.712;2023-07-09T02:04:54;99540.03;;;24.90;66.84
54306;BME280;66145;45.188;5.712;2023-07-09T02:07:21;99540.72;;;24.87;67.11
54306;BME280;66145;45.188;5.712;2023-07-09T02:09:47;99541.28;;;24.93;66.84
54306;BME280;66145;45.188;5.712;2023-07-09T02:12:14;99538.50;;;24.93;66.41
54306;BME280;66145;45.188;5.712;2023-07-09T02:14:41;99534.81;;;24.89;66.98
54306;BME280;66145;45.188;5.712;2023-07-09T02:17:07;99537.59;;;24.89;66.93
54306;BME280;66145;45.188;5.712;2023-07-09T02:19:33;99531.16;;;24.85;66.81
54306;BME280;66145;45.188;5.712;2023-07-09T02:21:58;99547.28;;;24.95;65.70
54306;BME280;66145;45.188;5.712;2023-07-09T02:24:24;99549.69;;;24.97;66.92
54306;BME280;66145;45.188;5.712;2023-07-09T02:26:57;99544.41;;;24.92;65.74
54306;BME280;66145;45.188;5.712;2023-07-09T02:29:23;99534.81;;;24.89;66.61
54306;BME280;66145;45.188;5.712;2023-07-09T02:31:51;99548.88;;;24.96;66.75
54306;BME280;66145;45.188;5.712;2023-07-09T02:34:20;99550.84;;;24.96;66.60
54306;BME280;66145;45.188;5.712;2023-07-09T02:36:46;99548.88;;;24.96;66.71
54306;BME280;66145;45.188;5.712;2023-07-09T02:39:13;99553.50;;;24.92;66.33
54306;BME280;66145;45.188;5.712;2023-07-09T02:41:39;99530.16;;;24.77;66.49
54306;BME280;66145;45.188;5.712;2023-07-09T02:44:06;99547.97;;;24.92;66.52
54306;BME280;66145;45.188;5.712;2023-07-09T02:46:31;99540.38;;;24.89;66.27
54306;BME280;66145;45.188;5.712;2023-07-09T02:48:57;99550.03;;;24.95;66.75
54306;BME280;66145;45.188;5.712;2023-07-09T02:51:23;99549.59;;;24.93;66.44
54306;BME280;66145;45.188;5.712;2023-07-09T02:53:49;99530.25;;;24.81;66.13
54306;BME280;66145;45.188;5.712;2023-07-09T02:56:14;99528.63;;;24.80;66.47
54306;BME280;66145;45.188;5.712;2023-07-09T02:58:40;99539.81;;;24.83;66.45
54306;BME280;66145;45.188;5.712;2023-07-09T03:01:05;99543.13;;;24.89;66.00
54306;BME280;66145;45.188;5.712;2023-07-09T03:03:31;99541.50;;;24.88;66.54
54306;BME280;66145;45.188;5.712;2023-07-09T03:05:56;99535.09;;;24.84;66.35
54306;BME280;66145;45.188;5.712;2023-07-09T03:08:21;99548.66;;;24.89;66.02
54306;BME280;66145;45.188;5.712;2023-07-09T03:10:47;99544.28;;;24.88;66.55
54306;BME280;66145;45.188;5.712;2023-07-09T03:13:12;99559.97;;;24.96;66.39
54306;BME280;66145;45.188;5.712;2023-07-09T03:15:40;99546.72;;;24.89;65.70
54306;BME280;66145;45.188;5.712;2023-07-09T03:18:06;99529.34;;;24.77;66.26
54306;BME280;66145;45.188;5.712;2023-07-09T03:20:31;99552.03;;;24.95;66.17
54306;BME280;66145;45.188;5.712;2023-07-09T03:22:57;99529.78;;;24.79;66.12
54306;BME280;66145;45.188;5.712;2023-07-09T03:25:22;99555.13;;;24.93;65.87
54306;BME280;66145;45.188;5.712;2023-07-09T03:27:48;99536.84;;;24.76;66.45
54306;BME280;66145;45.188;5.712;2023-07-09T03:30:14;99565.03;;;24.94;66.14
54306;BME280;66145;45.188;5.712;2023-07-09T03:32:40;99560.19;;;24.91;66.45
54306;BME280;66145;45.188;5.712;2023-07-09T03:35:05;99575.31;;;24.94;66.29
54306;BME280;66145;45.188;5.712;2023-07-09T03:37:31;99573.34;;;24.94;66.05
54306;BME280;66145;45.188;5.712;2023-07-09T03:39:56;99570.09;;;24.92;66.04
54306;BME280;66145;45.188;5.712;2023-07-09T03:42:21;99565.25;;;24.89;66.16
54306;BME280;66145;45.188;5.712;2023-07-09T03:44:47;99572.88;;;24.92;66.23
54306;BME280;66145;45.188;5.712;2023-07-09T03:47:12;99541.53;;;24.75;66.27
54306;BME280;66145;45.188;5.712;2023-07-09T03:49:38;99571.72;;;24.93;66.64
54306;BME280;66145;45.188;5.712;2023-07-09T03:52:04;99557.69;;;24.86;66.17
54306;BME280;66145;45.188;5.712;2023-07-09T03:54:29;99555.47;;;24.79;66.53
54306;BME280;66145;45.188;5.712;2023-07-09T03:56:54;99571.50;;;24.86;65.94
54306;BME280;66145;45.188;5.712;2023-07-09T03:59:20;99567.47;;;24.83;66.43
54306;BME280;66145;45.188;5.712;2023-07-09T04:01:45;99568.75;;;24.86;66.59
54306;BME280;66145;45.188;5.712;2023-07-09T04:04:12;99569.19;;;24.88;66.39
54306;BME280;66145;45.188;5.712;2023-07-09T04:06:39;99577.16;;;24.89;66.51
54306;BME280;66145;45.188;5.712;2023-07-09T04:09:04;99576.31;;;24.89;66.68
54306;BME280;66145;45.188;5.712;2023-07-09T04:11:30;99560.56;;;24.77;66.81
54306;BME280;66145;45.188;5.712;2023-07-09T04:13:55;99565.06;;;24.82;66.32
54306;BME280;66145;45.188;5.712;2023-07-09T04:16:20;99553.91;;;24.78;66.72
54306;BME280;66145;45.188;5.712;2023-07-09T04:18:46;99555.75;;;24.74;66.63
54306;BME280;66145;45.188;5.712;2023-07-09T04:21:11;99587.53;;;24.93;66.07
54306;BME280;66145;45.188;5.712;2023-07-09T04:23:39;99586.25;;;24.90;66.60
54306;BME280;66145;45.188;5.712;2023-07-09T04:26:05;99588.69;;;24.92;65.96
54306;BME280;66145;45.188;5.712;2023-07-09T04:28:34;99592.22;;;24.92;66.41
54306;BME280;66145;45.188;5.712;2023-07-09T04:30:59;99574.63;;;24.84;66.59
54306;BME280;66145;45.188;5.712;2023-07-09T04:33:24;99579.81;;;24.86;66.33
54306;BME280;66145;45.188;5.712;2023-07-09T04:35:50;99576.47;;;24.80;66.34
54306;BME280;66145;45.188;5.712;2023-07-09T04:38:15;99578.53;;;24.83;66.52
54306;BME280;66145;45.188;5.712;2023-07-09T04:40:41;99583.16;;;24.92;66.73
54306;BME280;66145;45.188;5.712;2023-07-09T04:43:06;99584.41;;;24.94;66.49
54306;BME280;66145;45.188;5.712;2023-07-09T04:45:32;99578.06;;;24.94;66.46
54306;BME280;66145;45.188;5.712;2023-07-09T04:47:57;99578.88;;;24.94;66.77
54306;BME280;66145;45.188;5.712;2023-07-09T04:50:22;99580.94;;;24.97;66.19
54306;BME280;66145;45.188;5.712;2023-07-09T04:52:48;99579.78;;;24.98;66.62
54306;BME280;66145;45.188;5.712;2023-07-09T04:55:13;99552.47;;;24.84;66.69
54306;BME280;66145;45.188;5.712;2023-07-09T04:57:39;99574.25;;;24.98;66.21
54306;BME280;66145;45.188;5.712;2023-07-09T05:00:05;99550.41;;;24.81;66.86
54306;BME280;66145;45.188;5.712;2023-07-09T05:02:31;99573.34;;;24.94;66.12
54306;BME280;66145;45.188;5.712;2023-07-09T05:04:56;99562.84;;;24.87;66.32
54306;BME280;66145;45.188;5.712;2023-07-09T05:07:22;99562.50;;;24.89;66.58
54306;BME280;66145;45.188;5.712;2023-07-09T05:09:47;99565.03;;;24.94;66.24
54306;BME280;66145;45.188;5.712;2023-07-09T05:12:13;99571.81;;;24.97;66.44
54306;BME280;66145;45.188;5.712;2023-07-09T05:14:39;99573.78;;;24.96;66.27
54306;BME280;66145;45.188;5.712;2023-07-09T05:17:05;99556.06;;;24.85;66.22
54306;BME280;66145;45.188;5.712;2023-07-09T05:19:31;99574.47;;;24.93;65.98
54306;BME280;66145;45.188;5.712;2023-07-09T05:21:56;99559.41;;;24.90;66.24
54306;BME280;66145;45.188;5.712;2023-07-09T05:24:22;99552.38;;;24.81;66.12
54306;BME280;66145;45.188;5.712;2023-07-09T05:26:47;99558.56;;;24.90;66.10
54306;BME280;66145;45.188;5.712;2023-07-09T05:29:12;99578.63;;;24.99;66.11
54306;BME280;66145;45.188;5.712;2023-07-09T05:31:38;99582.19;;;25.00;66.16
54306;BME280;66145;45.188;5.712;2023-07-09T05:34:03;99571.38;;;24.95;66.08
54306;BME280;66145;45.188;5.712;2023-07-09T05:36:29;99563.66;;;24.88;66.17
54306;BME280;66145;45.188;5.712;2023-07-09T05:38:55;99561.25;;;24.86;66.26
54306;BME280;66145;45.188;5.712;2023-07-09T05:41:21;99552.38;;;24.81;65.83
54306;BME280;66145;45.188;5.712;2023-07-09T05:43:46;99581.41;;;24.99;65.87
54306;BME280;66145;45.188;5.712;2023-07-09T05:46:13;99572.41;;;24.90;66.36
54306;BME280;66145;45.188;5.712;2023-07-09T05:48:38;99574.94;;;24.95;65.93
54306;BME280;66145;45.188;5.712;2023-07-09T05:51:04;99581.72;;;24.98;66.13
54306;BME280;66145;45.188;5.712;2023-07-09T05:53:30;99575.75;;;24.96;66.26
54306;BME280;66145;45.188;5.712;2023-07-09T05:55:57;99572.88;;;24.92;66.06
54306;BME280;66145;45.188;5.712;2023-07-09T05:58:23;99566.41;;;24.88;66.24
54306;BME280;66145;45.188;5.712;2023-07-09T06:00:53;99574.16;;;24.95;66.30
54306;BME280;66145;45.188;5.712;2023-07-09T06:03:19;99572.88;;;24.92;65.94
54306;BME280;66145;45.188;5.712;2023-07-09T06:05:45;99547.44;;;24.74;65.82
54306;BME280;66145;45.188;5.712;2023-07-09T06:08:10;99578.50;;;24.96;65.54
54306;BME280;66145;45.188;5.712;2023-07-09T06:10:37;99568.75;;;24.86;65.94
54306;BME280;66145;45.188;5.712;2023-07-09T06:13:03;99568.16;;;24.93;65.83
54306;BME280;66145;45.188;5.712;2023-07-09T06:15:28;99574.94;;;24.95;65.84
54306;BME280;66145;45.188;5.712;2023-07-09T06:17:53;99563.78;;;24.92;66.34
54306;BME280;66145;45.188;5.712;2023-07-09T06:20:19;99564.00;;;24.86;65.90
54306;BME280;66145;45.188;5.712;2023-07-09T06:22:44;99576.00;;;24.90;66.16
54306;BME280;66145;45.188;5.712;2023-07-09T06:25:12;99574.84;;;24.92;65.55
54306;BME280;66145;45.188;5.712;2023-07-09T06:27:37;99588.09;;;24.98;66.05
54306;BME280;66145;45.188;5.712;2023-07-09T06:30:03;99579.22;;;24.93;65.95
54306;BME280;66145;45.188;5.712;2023-07-09T06:32:29;99580.59;;;24.99;66.01
54306;BME280;66145;45.188;5.712;2023-07-09T06:34:54;99582.19;;;25.00;65.55
54306;BME280;66145;45.188;5.712;2023-07-09T06:37:19;99571.72;;;24.93;65.94
54306;BME280;66145;45.188;5.712;2023-07-09T06:39:44;99580.34;;;25.04;65.49
54306;BME280;66145;45.188;5.712;2023-07-09T06:42:10;99581.88;;;25.01;65.89
54306;BME280;66145;45.188;5.712;2023-07-09T06:44:36;99564.38;;;24.85;66.02
54306;BME280;66145;45.188;5.712;2023-07-09T06:47:01;99573.09;;;24.87;65.82
54306;BME280;66145;45.188;5.712;2023-07-09T06:49:27;99571.63;;;24.89;65.90
54306;BME280;66145;45.188;5.712;2023-07-09T06:51:53;99591.91;;;24.94;66.00
54306;BME280;66145;45.188;5.712;2023-07-09T06:54:18;99580.38;;;24.92;65.79
54306;BME280;66145;45.188;5.712;2023-07-09T06:56:43;99582.59;;;24.86;65.81
54306;BME280;66145;45.188;5.712;2023-07-09T06:59:09;99591.44;;;24.92;65.80
54306;BME280;66145;45.188;5.712;2023-07-09T07:01:35;99597.88;;;24.96;65.90
54306;BME280;66145;45.188;5.712;2023-07-09T07:04:00;99597.19;;;24.99;65.90
54306;BME280;66145;45.188;5.712;2023-07-09T07:06:26;99601.56;;;25.00;66.15
54306;BME280;66145;45.188;5.712;2023-07-09T07:08:51;99582.78;;;24.93;65.72
54306;BME280;66145;45.188;5.712;2023-07-09T07:11:17;99567.94;;;24.85;65.96
54306;BME280;66145;45.188;5.712;2023-07-09T07:13:43;99593.72;;;25.02;65.53
54306;BME280;66145;45.188;5.712;2023-07-09T07:16:10;99596.38;;;24.98;65.94
54306;BME280;66145;45.188;5.712;2023-07-09T07:18:39;99587.16;;;24.94;65.51
54306;BME280;66145;45.188;5.712;2023-07-09T07:21:05;99589.09;;;25.06;65.66
54306;BME280;66145;45.188;5.712;2023-07-09T07:23:31;99589.13;;;24.94;65.70
54306;BME280;66145;45.188;5.712;2023-07-09T07:25:57;99579.13;;;24.77;65.72
54306;BME280;66145;45.188;5.712;2023-07-09T07:28:22;99587.97;;;24.82;66.08
54306;BME280;66145;45.188;5.712;2023-07-09T07:31:01;99596.75;;;24.84;65.73
54306;BME280;66145;45.188;5.712;2023-07-09T07:33:26;99589.84;;;24.78;66.07
54306;BME280;66145;45.188;5.712;2023-07-09T07:35:51;99583.84;;;24.76;65.86
54306;BME280;66145;45.188;5.712;2023-07-09T07:38:17;99589.72;;;24.74;65.66
54306;BME280;66145;45.188;5.712;2023-07-09T07:40:45;99577.94;;;24.65;66.11
54306;BME280;66145;45.188;5.712;2023-07-09T07:43:11;99579.91;;;24.65;66.16
54306;BME280;66145;45.188;5.712;2023-07-09T07:45:43;99579.56;;;24.66;65.97
54306;BME280;66145;45.188;5.712;2023-07-09T07:48:09;99577.59;;;24.67;65.90
54306;BME280;66145;45.188;5.712;2023-07-09T07:50:34;99587.41;;;24.77;66.06
54306;BME280;66145;45.188;5.712;2023-07-09T07:53:01;99588.94;;;24.74;65.73
54306;BME280;66145;45.188;5.712;2023-07-09T07:55:26;99575.19;;;24.65;65.62
54306;BME280;66145;45.188;5.712;2023-07-09T07:57:52;99571.28;;;24.66;65.74
54306;BME280;66145;45.188;5.712;2023-07-09T08:00:18;99573.56;;;24.64;66.02
54306;BME280;66145;45.188;5.712;2023-07-09T08:02:44;99566.78;;;24.62;65.78
54306;BME280;66145;45.188;5.712;2023-07-09T08:05:10;99579.09;;;24.64;65.97
54306;BME280;66145;45.188;5.712;2023-07-09T08:07:35;99579.91;;;24.65;66.06
54306;BME280;66145;45.188;5.712;2023-07-09T08:10:00;99551.56;;;24.55;65.77
54306;BME280;66145;45.188;5.712;2023-07-09T08:12:26;99566.91;;;24.65;65.55
54306;BME280;66145;45.188;5.712;2023-07-09T08:14:51;99566.66;;;24.58;65.74
54306;BME280;66145;45.188;5.712;2023-07-09T08:17:16;99564.25;;;24.56;65.84
54306;BME280;66145;45.188;5.712;2023-07-09T08:19:45;99575.19;;;24.65;65.50
54306;BME280;66145;45.188;5.712;2023-07-09T08:22:11;99552.72;;;24.54;65.80
54306;BME280;66145;45.188;5.712;2023-07-09T08:24:36;99558.03;;;24.59;65.69
54306;BME280;66145;45.188;5.712;2023-07-09T08:27:02;99563.19;;;24.61;65.98
54306;BME280;66145;45.188;5.712;2023-07-09T08:29:28;99534.44;;;24.37;66.00
54306;BME280;66145;45.188;5.712;2023-07-09T08:31:53;99574.25;;;24.61;66.02
54306;BME280;66145;45.188;5.712;2023-07-09T08:34:19;99578.63;;;24.62;65.77
54306;BME280;66145;45.188;5.712;2023-07-09T08:36:44;99568.94;;;24.56;66.05
54306;BME280;66145;45.188;5.712;2023-07-09T08:39:09;99552.84;;;24.45;65.74
54306;BME280;66145;45.188;5.712;2023-07-09T08:41:40;99562.16;;;24.53;65.67
54306;BME280;66145;45.188;5.712;2023-07-09T08:44:53;99582.56;;;24.61;65.74
54306;BME280;66145;45.188;5.712;2023-07-09T08:47:47;99578.19;;;24.60;65.99
54306;BME280;66145;45.188;5.712;2023-07-09T08:50:35;99579.00;;;24.60;65.78
54306;BME280;66145;45.188;5.712;2023-07-09T08:53:01;99560.44;;;24.49;65.53
54306;BME280;66145;45.188;5.712;2023-07-09T08:55:29;99559.88;;;24.55;65.71
54306;BME280;66145;45.188;5.712;2023-07-09T08:57:58;99560.56;;;24.52;65.80
54306;BME280;66145;45.188;5.712;2023-07-09T09:00:31;99578.19;;;24.60;65.86
54306;BME280;66145;45.188;5.712;2023-07-09T09:03:10;99561.38;;;24.53;65.71
54306;BME280;66145;45.188;5.712;2023-07-09T09:05:41;99560.66;;;24.56;65.77
54306;BME280;66145;45.188;5.712;2023-07-09T09:11:12;99555.03;;;24.52;65.95
54306;BME280;66145;45.188;5.712;2023-07-09T09:13:39;99554.44;;;24.59;65.67
54306;BME280;66145;45.188;5.712;2023-07-09T09:16:14;99564.13;;;24.65;66.04
54306;BME280;66145;45.188;5.712;2023-07-09T09:18:45;99553.66;;;24.71;66.47
54306;BME280;66145;45.188;5.712;2023-07-09T09:21:21;99536.00;;;24.63;66.27
54306;BME280;66145;45.188;5.712;2023-07-09T09:23:54;99548.59;;;24.73;65.97
54306;BME280;66145;45.188;5.712;2023-07-09T09:26:28;99540.75;;;24.75;66.29
54306;BME280;66145;45.188;5.712;2023-07-09T09:28:56;99525.41;;;24.65;65.84
54306;BME280;66145;45.188;5.712;2023-07-09T09:31:24;99517.69;;;24.58;66.14
54306;BME280;66145;45.188;5.712;2023-07-09T09:33:51;99535.09;;;24.71;66.26
54306;BME280;66145;45.188;5.712;2023-07-09T09:36:20;99538.31;;;24.73;65.33
54306;BME280;66145;45.188;5.712;2023-07-09T09:38:46;99532.78;;;24.73;66.47
54306;BME280;66145;45.188;5.712;2023-07-09T09:41:13;99520.47;;;24.71;66.21
54306;BME280;66145;45.188;5.712;2023-07-09T09:43:41;99514.00;;;24.67;66.37
54306;BME280;66145;45.188;5.712;2023-07-09T09:46:07;99522.09;;;24.72;66.88
54306;BME280;66145;45.188;5.712;2023-07-09T09:48:32;99524.34;;;24.82;66.23
54306;BME280;66145;45.188;5.712;2023-07-09T09:50:59;99519.19;;;24.81;66.12
54306;BME280;66145;45.188;5.712;2023-07-09T09:53:29;99520.69;;;24.78;66.32
54306;BME280;66145;45.188;5.712;2023-07-09T09:56:04;99503.19;;;24.74;66.58
54306;BME280;66145;45.188;5.712;2023-07-09T09:58:29;99500.88;;;24.76;66.30
54306;BME280;66145;45.188;5.712;2023-07-09T10:00:56;99500.06;;;24.75;66.61
54306;BME280;66145;45.188;5.712;2023-07-09T10:03:33;99493.22;;;24.85;66.10
54306;BME280;66145;45.188;5.712;2023-07-09T10:06:06;99480.22;;;24.86;66.21
54306;BME280;66145;45.188;5.712;2023-07-09T10:08:47;99506.53;;;25.08;65.73
54306;BME280;66145;45.188;5.712;2023-07-09T10:17:38;99500.75;;;25.13;65.63
54306;BME280;66145;45.188;5.712;2023-07-09T10:22:49;99495.66;;;25.15;65.47
54306;BME280;66145;45.188;5.712;2023-07-09T10:25:48;99493.25;;;25.14;65.36
54306;BME280;66145;45.188;5.712;2023-07-09T10:31:13;99495.44;;;25.20;64.96
54306;BME280;66145;45.188;5.712;2023-07-09T10:33:56;99496.88;;;25.30;65.05
54306;BME280;66145;45.188;5.712;2023-07-09T10:36:57;99483.66;;;25.24;64.84
54306;BME280;66145;45.188;5.712;2023-07-09T10:39:23;99508.88;;;25.34;64.82
54306;BME280;66145;45.188;5.712;2023-07-09T10:41:55;99508.25;;;25.41;64.81
54306;BME280;66145;45.188;5.712;2023-07-09T10:44:33;99485.19;;;25.37;64.41
54306;BME280;66145;45.188;5.712;2023-07-09T10:47:14;99479.91;;;25.32;64.78
54306;BME280;66145;45.188;5.712;2023-07-09T10:49:48;99493.06;;;25.35;65.25
54306;BME280;66145;45.188;5.712;2023-07-09T10:52:27;99478.75;;;25.33;64.83
54306;BME280;66145;45.188;5.712;2023-07-09T10:55:15;99475.66;;;25.34;65.18
54306;BME280;66145;45.188;5.712;2023-07-09T10:57:48;99477.22;;;25.35;65.06
54306;BME280;66145;45.188;5.712;2023-07-09T11:00:23;99477.13;;;25.32;64.73
54306;BME280;66145;45.188;5.712;2023-07-09T11:02:58;99488.66;;;25.34;65.24
54306;BME280;66145;45.188;5.712;2023-07-09T11:05:24;99465.16;;;25.28;65.29
54306;BME280;66145;45.188;5.712;2023-07-09T11:08:02;99468.13;;;25.35;65.36
54306;BME280;66145;45.188;5.712;2023-07-09T11:11:10;99464.56;;;25.34;65.33
54306;BME280;66145;45.188;5.712;2023-07-09T11:13:41;99464.56;;;25.34;65.88
54306;BME280;66145;45.188;5.712;2023-07-09T11:16:14;99455.44;;;25.34;65.54
54306;BME280;66145;45.188;5.712;2023-07-09T11:18:54;99448.91;;;25.26;65.45
54306;BME280;66145;45.188;5.712;2023-07-09T11:21:19;99461.34;;;25.32;65.83
54306;BME280;66145;45.188;5.712;2023-07-09T11:26:28;99440.97;;;25.25;65.55
54306;BME280;66145;45.188;5.712;2023-07-09T11:29:16;99412.91;;;25.10;65.44
54306;BME280;66145;45.188;5.712;2023-07-09T11:31:44;99443.59;;;25.33;65.98
54306;BME280;66145;45.188;5.712;2023-07-09T11:36:57;99438.69;;;25.43;66.07
54306;BME280;66145;45.188;5.712;2023-07-09T11:42:22;99433.38;;;25.38;65.63
54306;BME280;66145;45.188;5.712;2023-07-09T11:44:49;99430.72;;;25.41;65.60
54306;BME280;66145;45.188;5.712;2023-07-09T11:47:20;99433.97;;;25.43;65.37
54306;BME280;66145;45.188;5.712;2023-07-09T11:50:04;99404.38;;;25.31;65.01
54306;BME280;66145;45.188;5.712;2023-07-09T11:53:13;99423.59;;;25.40;65.54
54306;BME280;66145;45.188;5.712;2023-07-09T11:58:00;99410.97;;;25.27;65.53
54306;BME280;66145;45.188;5.712;2023-07-09T12:00:28;99401.84;;;25.10;65.62
54306;BME280;66145;45.188;5.712;2023-07-09T12:02:55;99408.25;;;25.14;65.96
54306;BME280;66145;45.188;5.712;2023-07-09T12:05:27;99387.44;;;25.04;65.62
54306;BME280;66145;45.188;5.712;2023-07-09T12:07:55;99403.09;;;25.13;65.71
54306;BME280;66145;45.188;5.712;2023-07-09T12:10:23;99392.34;;;25.11;65.70
54306;BME280;66145;45.188;5.712;2023-07-09T12:12:56;99395.03;;;25.08;65.90
54306;BME280;66145;45.188;5.712;2023-07-09T12:15:28;99398.25;;;25.10;65.64
54306;BME280;66145;45.188;5.712;2023-07-09T12:18:02;99394.69;;;25.09;65.51
54306;BME280;66145;45.188;5.712;2023-07-09T12:20:30;99388.16;;;25.01;65.52
54306;BME280;66145;45.188;5.712;2023-07-09T12:22:56;99381.34;;;24.99;65.48
54306;BME280;66145;45.188;5.712;2023-07-09T12:25:28;99378.13;;;24.97;65.42
54306;BME280;66145;45.188;5.712;2023-07-09T12:27:57;99383.06;;;25.03;65.62
54306;BME280;66145;45.188;5.712;2023-07-09T12:30:23;99379.13;;;25.04;65.67
54306;BME280;66145;45.188;5.712;2023-07-09T12:32:50;99367.53;;;24.99;65.53
54306;BME280;66145;45.188;5.712;2023-07-09T12:35:18;99372.72;;;25.00;65.37
54306;BME280;66145;45.188;5.712;2023-07-09T12:37:46;99377.09;;;25.01;65.23
54306;BME280;66145;45.188;5.712;2023-07-09T12:40:21;99368.59;;;24.94;65.11
54306;BME280;66145;45.188;5.712;2023-07-09T12:42:47;99372.28;;;24.98;65.66
54306;BME280;66145;45.188;5.712;2023-07-09T12:45:20;99372.59;;;24.97;65.29
54306;BME280;66145;45.188;5.712;2023-07-09T12:47:47;99361.38;;;24.89;65.20
54306;BME280;66145;45.188;5.712;2023-07-09T12:50:34;99358.59;;;24.89;65.02
54306;BME280;66145;45.188;5.712;2023-07-09T12:53:03;99365.47;;;24.96;65.33
54306;BME280;66145;45.188;5.712;2023-07-09T12:55:29;99369.97;;;25.00;65.31
54306;BME280;66145;45.188;5.712;2023-07-09T12:58:03;99368.34;;;24.99;65.17
54306;BME280;66145;45.188;5.712;2023-07-09T13:00:31;99357.06;;;24.92;65.14
54306;BME280;66145;45.188;5.712;2023-07-09T13:02:58;99354.84;;;24.98;65.63
54306;BME280;66145;45.188;5.712;2023-07-09T13:05:25;99357.28;;;24.99;65.20
54306;BME280;66145;45.188;5.712;2023-07-09T13:07:54;99361.19;;;24.98;65.20
54306;BME280;66145;45.188;5.712;2023-07-09T13:10:39;99355.22;;;24.96;65.20
54306;BME280;66145;45.188;5.712;2023-07-09T13:13:05;99365.59;;;24.99;65.27
54306;BME280;66145;45.188;5.712;2023-07-09T13:15:39;99363.59;;;25.00;65.01
54306;BME280;66145;45.188;5.712;2023-07-09T13:18:07;99347.16;;;24.91;65.45
54306;BME280;66145;45.188;5.712;2023-07-09T13:20:37;99365.59;;;24.99;65.53
54306;BME280;66145;45.188;5.712;2023-07-09T13:23:20;99326.81;;;24.83;65.46
54306;BME280;66145;45.188;5.712;2023-07-09T13:25:46;99347.28;;;24.95;65.42
54306;BME280;66145;45.188;5.712;2023-07-09T13:28:21;99358.44;;;24.98;65.27
54306;BME280;66145;45.188;5.712;2023-07-09T13:30:50;99339.69;;;24.92;65.48
54306;BME280;66145;45.188;5.712;2023-07-09T13:33:17;99336.47;;;24.89;65.32
54306;BME280;66145;45.188;5.712;2023-07-09T13:35:43;99334.50;;;24.90;65.50
54306;BME280;66145;45.188;5.712;2023-07-09T13:38:14;99337.38;;;24.94;65.43